Time;durP1;ratioP1;P1;durP2;ratioP2;P2;SDS_P1;SDS_P2;PMS_P1;PMS_P2;Temp;Humidity;BMP_temperature;BMP_pressure;BME280_temperature;BME280_humidity;BME280_pressure;Samples;Min_cycle;Max_cycle;Signal;HPM_P1;HPM_P2
2022/10/06 00:00:45;;;;;;;6.07;0.80;;;13.00;99.90;;;;;;5053253;28;20166;-78
2022/10/06 00:03:11;;;;;;;9.38;1.15;;;13.00;99.90;;;;;;5069647;28;20041;-79
2022/10/06 00:05:37;;;;;;;8.30;1.25;;;13.00;99.90;;;;;;5069740;28;20105;-79
2022/10/06 00:08:03;;;;;;;4.40;0.63;;;13.00;99.90;;;;;;5069875;28;20032;-79
2022/10/06 00:10:30;;;;;;;8.25;0.80;;;13.00;99.90;;;;;;5069580;28;20043;-81
2022/10/06 00:12:56;;;;;;;6.80;1.02;;;13.00;99.90;;;;;;5052849;28;20044;-79
2022/10/06 00:15:25;;;;;;;9.20;0.95;;;13.00;99.90;;;;;;5069033;28;20045;-79
2022/10/06 00:17:51;;;;;;;6.95;1.00;;;12.90;99.90;;;;;;5069583;28;20119;-79
2022/10/06 00:20:17;;;;;;;6.75;1.08;;;12.90;99.90;;;;;;5069685;28;20120;-79
2022/10/06 00:22:46;;;;;;;6.60;1.10;;;12.90;99.90;;;;;;5069635;28;20469;-79
2022/10/06 00:25:14;;;;;;;9.55;1.52;;;12.90;99.90;;;;;;5066818;28;20501;-79
2022/10/06 00:27:43;;;;;;;9.93;1.75;;;12.80;99.90;;;;;;5069261;28;20048;-79
2022/10/06 00:30:11;;;;;;;5.22;1.02;;;12.90;99.90;;;;;;5069479;28;20039;-79
2022/10/06 00:32:38;;;;;;;7.28;1.17;;;12.90;99.90;;;;;;5073539;28;20028;-78
2022/10/06 00:35:06;;;;;;;9.45;1.42;;;12.90;99.90;;;;;;5073376;28;20130;-79
2022/10/06 00:37:34;;;;;;;7.35;1.48;;;12.90;99.90;;;;;;5072437;28;20533;-78
2022/10/06 00:40:05;;;;;;;10.57;1.30;;;12.90;99.90;;;;;;5055844;28;20035;-79
2022/10/06 00:42:31;;;;;;;8.98;1.30;;;12.90;99.90;;;;;;5055390;28;20056;-79
2022/10/06 00:45:01;;;;;;;;;;;12.90;99.90;;;;;;5072891;28;20055;-79
2022/10/06 00:47:30;;;;;;;9.05;0.90;;;12.90;99.90;;;;;;5072603;28;19916;-79
2022/10/06 00:49:57;;;;;;;5.45;0.93;;;12.80;99.90;;;;;;5072419;28;20040;-80
2022/10/06 00:52:27;;;;;;;8.93;1.13;;;12.80;99.90;;;;;;5055746;28;20072;-80
2022/10/06 00:54:53;;;;;;;6.85;1.25;;;12.80;99.90;;;;;;5073269;28;20040;-80
2022/10/06 00:57:19;;;;;;;8.07;1.58;;;12.70;99.90;;;;;;5072964;28;20036;-80
2022/10/06 00:59:45;;;;;;;;;;;12.70;99.90;;;;;;5055034;28;20040;-79
2022/10/06 01:02:24;;;;;;;11.07;1.50;;;12.60;99.90;;;;;;5073102;28;19923;-80
2022/10/06 01:04:54;;;;;;;8.90;1.42;;;12.60;99.90;;;;;;5056736;28;20041;-80
2022/10/06 01:07:21;;;;;;;8.35;0.88;;;12.60;99.90;;;;;;5072725;28;20115;-79
2022/10/06 01:09:47;;;;;;;8.52;1.40;;;12.60;99.90;;;;;;5073026;28;20032;-79
2022/10/06 01:12:14;;;;;;;6.05;1.20;;;12.60;99.90;;;;;;5056458;28;20040;-79
2022/10/06 01:14:40;;;;;;;7.28;1.08;;;12.50;99.90;;;;;;5056121;28;20097;-79
2022/10/06 01:17:34;;;;;;;7.05;1.20;;;12.50;99.90;;;;;;5072820;28;20072;-79
2022/10/06 01:20:07;;;;;;;10.57;1.27;;;12.50;99.90;;;;;;5072955;28;20445;-79
2022/10/06 01:22:45;;;;;;;8.30;1.20;;;12.50;99.90;;;;;;5055804;28;20036;-78
2022/10/06 01:25:14;;;;;;;8.77;1.00;;;12.50;99.90;;;;;;5072445;28;20108;-79
2022/10/06 01:27:44;;;;;;;10.95;1.00;;;12.50;99.90;;;;;;5072241;28;20563;-79
2022/10/06 01:30:15;;;;;;;6.47;1.27;;;12.50;99.90;;;;;;5072742;28;20038;-79
2022/10/06 01:32:41;;;;;;;7.47;1.20;;;12.40;99.90;;;;;;5070776;28;20147;-79
2022/10/06 01:35:08;;;;;;;9.25;1.45;;;12.50;99.90;;;;;;5073200;28;20499;-79
2022/10/06 01:37:34;;;;;;;10.23;0.82;;;12.40;99.90;;;;;;5072484;28;20480;-79
2022/10/06 01:40:00;;;;;;;;;;;12.40;99.90;;;;;;5073330;28;20109;-79
2022/10/06 01:42:30;;;;;;;12.18;1.40;;;12.40;99.90;;;;;;5071763;28;19916;-79
2022/10/06 01:44:56;;;;;;;7.43;0.90;;;12.40;99.90;;;;;;5072507;28;20389;-79
2022/10/06 01:47:21;;;;;;;8.38;1.50;;;12.40;99.90;;;;;;5055420;28;20094;-79
2022/10/06 01:49:47;;;;;;;9.73;1.50;;;12.40;99.90;;;;;;5072775;28;20089;-79
2022/10/06 01:52:13;;;;;;;6.77;1.03;;;12.30;99.90;;;;;;5055753;28;20060;-79
2022/10/06 01:54:39;;;;;;;9.60;1.20;;;12.30;99.90;;;;;;5072288;28;20571;-79
2022/10/06 01:57:07;;;;;;;5.47;1.48;;;12.30;99.90;;;;;;5038899;28;20047;-79
2022/10/06 01:59:32;;;;;;;8.35;1.00;;;12.30;99.90;;;;;;5071826;28;20040;-79
2022/10/06 02:01:58;;;;;;;11.52;1.73;;;12.30;99.90;;;;;;5072228;28;20051;-79
2022/10/06 02:04:24;;;;;;;11.65;1.48;;;12.30;99.90;;;;;;5071734;28;20067;-75
2022/10/06 02:06:50;;;;;;;7.03;1.10;;;12.30;99.90;;;;;;5072029;28;20113;-75
2022/10/06 02:09:16;;;;;;;9.45;1.67;;;12.30;99.90;;;;;;5054986;28;20096;-75
2022/10/06 02:11:42;;;;;;;8.60;1.20;;;12.20;99.90;;;;;;5071233;28;20388;-75
2022/10/06 02:14:08;;;;;;;5.43;1.13;;;12.20;99.90;;;;;;5071725;28;20094;-75
2022/10/06 02:16:34;;;;;;;9.70;1.33;;;12.20;99.90;;;;;;5071275;28;20040;-75
2022/10/06 02:19:00;;;;;;;7.60;0.90;;;12.20;99.90;;;;;;5038473;28;20075;-75
2022/10/06 02:21:25;;;;;;;6.40;1.10;;;12.20;99.90;;;;;;5054552;28;20425;-75
2022/10/06 02:23:51;;;;;;;6.40;1.27;;;12.10;99.90;;;;;;5054579;28;20073;-75
2022/10/06 02:26:17;;;;;;;7.07;1.10;;;12.10;99.90;;;;;;5038471;28;20315;-75
2022/10/06 02:28:48;;;;;;;7.70;1.20;;;12.10;99.90;;;;;;5071272;28;20792;-75
2022/10/06 02:31:15;;;;;;;8.25;1.20;;;12.10;99.90;;;;;;5069693;28;20468;-75
2022/10/06 02:33:42;;;;;;;8.77;1.25;;;12.10;99.90;;;;;;5054270;28;20105;-75
2022/10/06 02:36:11;;;;;;;9.52;1.45;;;12.10;99.90;;;;;;5071128;28;20132;-75
2022/10/06 02:38:37;;;;;;;7.90;1.05;;;12.10;99.90;;;;;;5052070;28;20102;-75
2022/10/06 02:41:03;;;;;;;7.15;1.30;;;12.10;99.90;;;;;;5071327;28;20048;-75
2022/10/06 02:43:30;;;;;;;7.85;1.10;;;12.10;99.90;;;;;;5070787;28;20272;-75
2022/10/06 02:46:01;;;;;;;6.07;1.13;;;12.10;99.90;;;;;;5070558;28;20044;-75
2022/10/06 02:48:27;;;;;;;11.60;1.92;;;12.10;99.90;;;;;;5070810;28;20358;-75
2022/10/06 02:50:57;;;;;;;9.43;1.23;;;12.10;99.90;;;;;;5071095;28;20040;-74
2022/10/06 02:53:26;;;;;;;13.88;1.88;;;12.10;99.90;;;;;;5053254;28;21941;-73
2022/10/06 02:56:17;;;;;;;9.30;1.30;;;12.10;99.90;;;;;;5070979;28;20467;-73
2022/10/06 02:58:43;;;;;;;11.57;1.50;;;12.10;99.90;;;;;;5069899;28;20037;-74
2022/10/06 03:01:12;;;;;;;7.53;1.10;;;12.10;99.90;;;;;;5070655;28;20045;-74
2022/10/06 03:03:37;;;;;;;5.50;1.40;;;12.10;99.90;;;;;;5070368;28;20476;-75
2022/10/06 03:06:20;;;;;;;9.33;1.30;;;12.00;99.90;;;;;;5070199;28;20098;-74
2022/10/06 03:08:47;;;;;;;7.45;1.48;;;12.00;99.90;;;;;;5070269;28;20285;-75
2022/10/06 03:11:13;;;;;;;7.50;1.17;;;12.00;99.90;;;;;;5070663;28;20059;-75
2022/10/06 03:13:40;;;;;;;;;;;12.00;99.90;;;;;;5052836;28;20052;-74
2022/10/06 03:16:15;;;;;;;9.18;1.35;;;11.90;99.90;;;;;;5069489;28;20343;-75
2022/10/06 03:18:43;;;;;;;7.63;1.30;;;11.90;99.90;;;;;;5052469;28;20032;-74
2022/10/06 03:21:10;;;;;;;8.45;1.13;;;11.80;99.90;;;;;;5069392;28;20058;-74
2022/10/06 03:23:35;;;;;;;7.22;1.33;;;11.80;99.90;;;;;;5069070;28;20043;-74
2022/10/06 03:26:01;;;;;;;11.50;1.30;;;11.80;99.90;;;;;;5068771;28;20036;-75
2022/10/06 03:28:26;;;;;;;13.13;1.57;;;11.70;99.90;;;;;;5069356;28;20279;-74
2022/10/06 03:30:53;;;;;;;10.35;1.23;;;11.70;99.90;;;;;;5069199;28;20044;-74
2022/10/06 03:33:19;;;;;;;11.10;1.95;;;11.70;99.90;;;;;;5069671;28;20067;-75
2022/10/06 03:35:45;;;;;;;8.68;1.35;;;11.70;99.90;;;;;;5036564;28;20029;-75
2022/10/06 03:38:10;;;;;;;11.80;1.60;;;11.60;99.90;;;;;;5053579;28;20093;-75
2022/10/06 03:40:36;;;;;;;8.10;1.27;;;11.60;99.90;;;;;;5052742;28;20619;-75
2022/10/06 03:43:02;;;;;;;11.37;1.37;;;11.50;99.90;;;;;;5053564;28;20468;-75
2022/10/06 03:45:27;;;;;;;7.73;1.33;;;11.50;99.90;;;;;;5052718;28;20052;-75
2022/10/06 03:47:54;;;;;;;7.20;1.23;;;11.40;99.90;;;;;;5069778;28;20287;-75
2022/10/06 03:50:20;;;;;;;10.05;1.20;;;11.30;99.90;;;;;;5069508;28;20048;-75
2022/10/06 03:52:50;;;;;;;8.47;1.43;;;11.30;99.90;;;;;;5069481;28;20055;-75
2022/10/06 03:55:15;;;;;;;11.05;1.20;;;11.30;99.90;;;;;;5070007;28;20297;-75
2022/10/06 03:57:41;;;;;;;6.78;1.42;;;11.30;99.90;;;;;;5052838;28;20032;-75
2022/10/06 04:00:08;;;;;;;9.65;1.20;;;11.30;99.90;;;;;;5069601;28;20045;-75
2022/10/06 04:02:33;;;;;;;;;;;11.30;99.90;;;;;;5053276;28;20115;-75
2022/10/06 04:04:59;;;;;;;9.57;1.42;;;11.30;99.90;;;;;;5069404;28;20014;-75
2022/10/06 04:07:25;;;;;;;10.47;1.80;;;11.30;99.90;;;;;;5053151;28;20055;-75
2022/10/06 04:09:51;;;;;;;8.00;1.05;;;11.40;99.90;;;;;;5069340;28;20507;-75
2022/10/06 04:12:16;;;;;;;9.50;1.57;;;11.30;99.90;;;;;;5069663;28;20047;-75
2022/10/06 04:14:42;;;;;;;10.27;1.57;;;11.40;99.90;;;;;;5035975;28;20655;-75
2022/10/06 04:17:07;;;;;;;12.00;2.07;;;11.30;99.90;;;;;;5053091;28;20120;-76
2022/10/06 04:19:33;;;;;;;10.90;1.63;;;11.20;99.90;;;;;;5052825;28;20369;-74
2022/10/06 04:21:59;;;;;;;8.73;1.45;;;11.10;99.90;;;;;;5053146;28;20504;-75
2022/10/06 04:24:24;;;;;;;6.50;1.13;;;11.10;99.90;;;;;;5069528;28;20127;-74
2022/10/06 04:26:51;;;;;;;9.68;1.20;;;11.10;99.90;;;;;;5068951;28;20471;-75
2022/10/06 04:29:17;;;;;;;7.78;1.10;;;11.00;99.90;;;;;;5036956;28;20037;-75
2022/10/06 04:31:43;;;;;;;7.60;1.30;;;11.00;99.90;;;;;;5066567;28;20075;-75
2022/10/06 04:34:11;;;;;;;10.15;1.33;;;11.00;99.90;;;;;;5052920;28;20051;-75
2022/10/06 04:36:39;;;;;;;5.28;1.10;;;10.90;99.90;;;;;;5068929;28;20044;-74
2022/10/06 04:39:07;;;;;;;7.78;1.50;;;10.90;99.90;;;;;;5069277;28;20068;-74
2022/10/06 04:41:35;;;;;;;8.77;1.40;;;10.80;99.90;;;;;;5069124;28;20040;-75
2022/10/06 04:44:01;;;;;;;7.28;1.50;;;11.20;99.90;;;;;;5052151;28;20037;-75
2022/10/06 04:46:28;;;;;;;9.95;1.42;;;10.80;99.90;;;;;;5069295;28;20036;-74
2022/10/06 04:48:54;;;;;;;6.20;1.40;;;10.80;99.90;;;;;;5068111;28;20035;-74
2022/10/06 04:51:22;;;;;;;7.53;1.52;;;10.70;99.90;;;;;;5035894;28;20040;-75
2022/10/06 04:53:48;;;;;;;8.63;1.52;;;10.70;99.90;;;;;;5068867;28;20044;-76
2022/10/06 04:56:17;;;;;;;9.40;1.57;;;10.70;99.90;;;;;;5069323;28;20515;-74
2022/10/06 04:58:44;;;;;;;10.90;1.38;;;10.70;99.90;;;;;;5066904;28;20755;-74
2022/10/06 05:01:26;;;;;;;7.30;1.17;;;10.70;99.90;;;;;;5052210;28;20123;-73
2022/10/06 05:03:54;;;;;;;4.40;0.90;;;10.60;99.90;;;;;;5053863;28;20041;-76
2022/10/06 05:06:23;;;;;;;9.73;1.42;;;10.60;99.90;;;;;;5069445;28;20107;-76
2022/10/06 05:09:00;;;;;;;4.25;1.20;;;10.60;99.90;;;;;;5068767;28;20048;-76
2022/10/06 05:11:27;;;;;;;8.77;1.30;;;10.60;99.90;;;;;;5052577;28;20044;-77
2022/10/06 05:13:54;;;;;;;;;;;10.80;99.90;;;;;;5069578;28;20589;-77
2022/10/06 05:16:21;;;;;;;10.05;1.25;;;10.60;99.90;;;;;;5069351;28;19921;-77
2022/10/06 05:18:46;;;;;;;11.80;1.33;;;10.60;99.90;;;;;;5055564;28;20040;-77
2022/10/06 05:21:18;;;;;;;4.57;1.10;;;10.60;99.90;;;;;;5072854;28;20384;-77
2022/10/06 05:23:45;;;;;;;8.60;1.50;;;10.60;99.90;;;;;;5071806;28;20044;-77
2022/10/06 05:26:12;;;;;;;7.72;1.63;;;10.60;99.90;;;;;;5056009;28;20040;-76
2022/10/06 05:28:38;;;;;;;10.45;1.40;;;10.60;99.90;;;;;;5056118;28;20495;-77
2022/10/06 05:31:26;;;;;;;6.30;1.30;;;10.70;99.90;;;;;;5072328;28;20038;-77
2022/10/06 05:33:52;;;;;;;12.82;1.45;;;10.70;99.90;;;;;;5054683;28;20075;-77
2022/10/06 05:36:24;;;;;;;10.88;1.33;;;10.70;99.90;;;;;;5072355;28;20063;-77
2022/10/06 05:38:50;;;;;;;11.15;1.63;;;10.80;99.90;;;;;;5072426;28;20510;-77
2022/10/06 05:41:30;;;;;;;7.97;1.73;;;10.80;99.90;;;;;;5072412;28;20045;-77
2022/10/06 05:43:57;;;;;;;8.88;1.10;;;10.80;99.90;;;;;;5071984;28;20098;-77
2022/10/06 05:46:28;;;;;;;10.02;1.98;;;10.80;99.90;;;;;;5039434;28;20045;-77
2022/10/06 05:48:59;;;;;;;8.07;1.45;;;10.80;99.90;;;;;;5055338;28;20036;-77
2022/10/06 05:51:30;;;;;;;4.38;1.20;;;10.80;99.90;;;;;;5072159;28;20040;-77
2022/10/06 05:53:59;;;;;;;11.70;1.80;;;10.80;99.90;;;;;;5070284;28;20039;-75
2022/10/06 05:56:31;;;;;;;8.52;1.52;;;10.90;99.90;;;;;;5072485;28;20048;-76
2022/10/06 05:58:58;;;;;;;10.80;1.33;;;11.00;99.90;;;;;;5071646;28;20041;-76
2022/10/06 06:01:33;;;;;;;6.25;1.33;;;11.00;99.90;;;;;;5072033;28;20068;-75
2022/10/06 06:04:05;;;;;;;7.85;1.40;;;11.00;99.90;;;;;;5054684;28;20048;-76
2022/10/06 06:06:39;;;;;;;13.13;2.50;;;11.10;99.90;;;;;;5067877;28;20043;-76
2022/10/06 06:09:11;;;;;;;8.57;1.50;;;11.60;99.90;;;;;;5071521;28;20046;-76
2022/10/06 06:11:42;;;;;;;9.52;1.42;;;11.20;99.90;;;;;;5071609;28;20033;-76
2022/10/06 06:14:14;;;;;;;12.15;1.70;;;11.30;99.90;;;;;;5054813;28;20039;-76
2022/10/06 06:16:41;;;;;;;8.35;1.38;;;11.30;99.90;;;;;;5071711;28;20435;-76
2022/10/06 06:19:09;;;;;;;5.82;1.27;;;11.30;99.90;;;;;;5071444;28;20047;-76
2022/10/06 06:21:34;;;;;;;12.75;1.77;;;11.30;99.90;;;;;;5072162;28;20545;-76
2022/10/06 06:24:01;;;;;;;8.65;1.33;;;11.30;99.90;;;;;;5054506;28;20037;-76
2022/10/06 06:26:32;;;;;;;9.57;1.50;;;11.30;99.90;;;;;;5070959;28;20041;-76
2022/10/06 06:29:02;;;;;;;7.95;1.33;;;11.30;99.90;;;;;;5071253;28;20036;-75
2022/10/06 06:31:36;;;;;;;6.05;1.67;;;11.20;99.90;;;;;;5071419;28;20178;-76
2022/10/06 06:34:05;;;;;;;8.73;1.50;;;11.20;99.90;;;;;;5052729;28;20071;-76
2022/10/06 06:36:34;;;;;;;10.52;1.35;;;11.30;99.90;;;;;;5071178;28;20055;-76
2022/10/06 06:39:02;;;;;;;7.93;1.42;;;11.40;99.90;;;;;;5071283;28;20048;-76
2022/10/06 06:41:31;;;;;;;12.40;1.63;;;11.50;99.90;;;;;;5070992;28;20037;-76
2022/10/06 06:43:58;;;;;;;9.40;1.42;;;11.60;99.90;;;;;;5071048;28;20489;-76
2022/10/06 06:46:26;;;;;;;8.00;1.40;;;11.70;99.90;;;;;;5054734;28;20040;-76
2022/10/06 06:48:53;;;;;;;10.65;1.35;;;11.80;99.90;;;;;;5070867;28;20125;-76
2022/10/06 06:51:22;;;;;;;5.35;0.90;;;12.00;99.90;;;;;;5054577;28;20033;-76
2022/10/06 06:53:49;;;;;;;10.10;1.63;;;12.10;99.90;;;;;;5071128;28;20037;-76
2022/10/06 06:56:16;;;;;;;7.93;1.70;;;12.20;99.90;;;;;;5054492;28;20040;-76
2022/10/06 06:58:49;;;;;;;10.27;1.52;;;12.40;99.90;;;;;;5070839;28;20119;-76
2022/10/06 07:01:20;;;;;;;10.00;1.48;;;12.60;99.90;;;;;;5070952;28;20484;-76
2022/10/06 07:03:54;;;;;;;13.43;1.73;;;12.60;99.90;;;;;;5054086;28;20512;-76
2022/10/06 07:06:21;;;;;;;9.50;1.63;;;12.70;99.90;;;;;;5054337;28;20047;-76
2022/10/06 07:08:48;;;;;;;8.13;1.40;;;12.70;99.90;;;;;;5054090;28;20067;-76
2022/10/06 07:11:13;;;;;;;15.40;1.88;;;12.80;99.90;;;;;;5053901;28;20182;-76
2022/10/06 07:13:41;;;;;;;12.77;2.23;;;13.00;99.90;;;;;;5070232;28;20075;-76
2022/10/06 07:27:20;;;;;;;8.95;1.52;;;13.60;99.90;;;;;;5069662;28;20125;-76
2022/10/06 07:29:46;;;;;;;10.60;1.35;;;13.80;99.90;;;;;;5067614;28;20043;-76
2022/10/06 07:32:12;;;;;;;9.73;1.30;;;13.90;99.90;;;;;;5070109;28;20503;-76
2022/10/06 07:34:40;;;;;;;7.55;1.40;;;14.10;99.90;;;;;;5070467;28;20123;-76
2022/10/06 07:37:06;;;;;;;12.40;1.58;;;14.40;99.90;;;;;;5053792;28;20048;-77
2022/10/06 07:39:31;;;;;;;8.77;1.40;;;14.90;99.90;;;;;;5069914;28;20376;-76
2022/10/06 07:41:57;;;;;;;8.07;1.45;;;15.50;99.90;;;;;;5070095;28;20139;-76
2022/10/06 07:44:23;;;;;;;7.63;1.38;;;15.70;99.90;;;;;;5053406;28;20045;-77
2022/10/06 07:46:51;;;;;;;11.18;1.60;;;15.90;99.90;;;;;;5070144;28;20455;-77
2022/10/06 07:49:16;;;;;;;9.82;1.55;;;16.30;99.90;;;;;;5069820;28;20052;-76
2022/10/06 07:51:43;;;;;;;9.55;1.80;;;16.70;99.90;;;;;;5069735;28;20036;-76
2022/10/06 07:54:09;;;;;;;11.25;1.70;;;17.10;99.90;;;;;;5053051;28;20058;-76
2022/10/06 07:56:35;;;;;;;10.27;2.13;;;17.60;99.90;;;;;;5069923;28;20044;-76
2022/10/06 07:59:01;;;;;;;9.73;1.48;;;18.10;99.90;;;;;;5069288;28;20040;-76
2022/10/06 08:01:28;;;;;;;;;;;18.30;99.90;;;;;;5070264;28;20055;-76
2022/10/06 08:03:54;;;;;;;8.15;1.45;;;18.60;99.90;;;;;;5053128;28;19921;-76
2022/10/06 08:06:22;;;;;;;7.32;1.30;;;19.10;99.90;;;;;;5069878;28;20047;-77
2022/10/06 08:08:51;;;;;;;8.25;1.50;;;19.30;99.90;;;;;;5069562;28;20101;-77
2022/10/06 08:11:17;;;;;;;7.95;1.60;;;19.50;99.90;;;;;;5067334;28;20376;-77
2022/10/06 08:13:44;;;;;;;;;;;19.70;99.90;;;;;;5070114;28;20036;-77
2022/10/06 08:16:13;;;;;;;7.57;1.60;;;19.80;99.90;;;;;;5069713;28;19926;-77
2022/10/06 08:18:41;;;;;;;5.85;1.48;;;19.90;99.90;;;;;;5068933;28;20127;-77
2022/10/06 08:21:18;;;;;;;10.50;1.33;;;20.30;99.90;;;;;;5068981;28;20036;-78
2022/10/06 08:23:45;;;;;;;8.55;1.58;;;20.50;99.90;;;;;;5049010;28;20047;-78
2022/10/06 08:26:13;;;;;;;8.82;1.48;;;20.70;99.90;;;;;;5066346;28;20097;-78
2022/10/06 08:28:41;;;;;;;7.97;1.38;;;21.10;99.90;;;;;;5068486;28;20135;-78
2022/10/06 08:31:10;;;;;;;9.35;1.40;;;21.10;99.90;;;;;;5069129;28;20477;-78
2022/10/06 08:33:41;;;;;;;7.82;1.50;;;21.00;99.90;;;;;;5070128;28;20040;-78
2022/10/06 08:36:09;;;;;;;9.65;1.60;;;21.20;99.90;;;;;;5069468;28;20068;-78
2022/10/06 08:38:36;;;;;;;7.50;1.50;;;21.30;99.90;;;;;;5069685;28;20035;-78
2022/10/06 08:41:19;;;;;;;6.78;1.48;;;21.40;99.90;;;;;;5069949;28;20048;-78
2022/10/06 08:44:00;;;;;;;13.30;1.60;;;21.50;99.90;;;;;;5067667;28;20040;-78
2022/10/06 08:46:36;;;;;;;6.63;1.40;;;21.50;99.90;;;;;;5069714;28;20028;-78
2022/10/06 08:49:04;;;;;;;8.57;1.52;;;21.80;99.90;;;;;;5051134;28;20032;-78
2022/10/06 08:51:39;;;;;;;8.38;1.73;;;21.80;99.90;;;;;;5069892;28;20111;-78
2022/10/06 08:54:13;;;;;;;7.65;1.40;;;21.90;99.90;;;;;;5055681;28;20540;-78
2022/10/06 08:57:02;;;;;;;8.07;1.30;;;22.30;99.90;;;;;;5071837;28;20051;-78
2022/10/06 08:59:31;;;;;;;5.32;1.10;;;22.50;99.90;;;;;;5073445;28;20048;-78
2022/10/06 09:01:57;;;;;;;8.80;1.55;;;22.60;99.90;;;;;;5074183;28;20404;-78
2022/10/06 09:04:27;;;;;;;8.77;1.40;;;22.30;99.90;;;;;;5073187;28;20036;-78
2022/10/06 09:07:09;;;;;;;8.63;1.40;;;21.90;99.80;;;;;;5056400;28;20086;-78
2022/10/06 09:09:45;;;;;;;6.97;1.20;;;22.10;99.90;;;;;;5073538;28;20437;-78
2022/10/06 09:12:22;;;;;;;7.03;1.30;;;22.60;99.90;;;;;;5071136;28;20128;-78
2022/10/06 09:15:03;;;;;;;7.40;1.00;;;22.40;99.90;;;;;;5071301;28;20053;-78
2022/10/06 09:17:36;;;;;;;8.73;1.20;;;22.80;99.00;;;;;;5072083;28;20047;-78
2022/10/06 09:20:10;;;;;;;8.98;1.33;;;23.10;99.60;;;;;;5056265;28;20040;-79
2022/10/06 09:22:37;;;;;;;7.97;1.17;;;23.10;98.10;;;;;;5072839;28;20040;-78
2022/10/06 09:25:18;;;;;;;4.75;1.08;;;23.30;98.10;;;;;;5073200;28;20040;-78
2022/10/06 09:27:50;;;;;;;5.78;1.05;;;23.30;97.90;;;;;;5071399;28;20079;-78
2022/10/06 09:30:17;;;;;;;7.40;1.30;;;23.40;97.90;;;;;;5070483;28;20510;-78
2022/10/06 09:32:58;;;;;;;7.30;1.13;;;23.10;98.10;;;;;;5056123;28;20036;-78
2022/10/06 09:35:26;;;;;;;6.45;1.00;;;23.10;98.00;;;;;;5056123;28;20516;-78
2022/10/06 09:37:56;;;;;;;5.45;1.23;;;23.50;98.10;;;;;;5070645;28;20097;-78
2022/10/06 09:40:35;;;;;;;6.93;1.25;;;23.70;97.70;;;;;;5073023;28;20476;-78
2022/10/06 09:43:04;;;;;;;6.03;1.00;;;23.90;97.60;;;;;;5072473;28;20119;-78
2022/10/06 09:45:30;;;;;;;8.32;1.17;;;24.10;97.60;;;;;;5070321;28;20044;-78
2022/10/06 09:48:10;;;;;;;;;;;24.10;96.90;;;;;;5073345;28;20081;-78
2022/10/06 09:50:36;;;;;;;8.23;1.20;;;24.20;97.20;;;;;;5071404;28;19971;-79
2022/10/06 09:53:03;;;;;;;;;;;24.40;96.80;;;;;;5073441;28;20067;-78
2022/10/06 09:55:37;;;;;;;6.63;1.35;;;24.50;96.70;;;;;;5072184;28;19916;-79
2022/10/06 09:58:22;;;;;;;6.43;0.93;;;24.80;96.40;;;;;;5070663;28;20048;-79
2022/10/06 10:00:53;;;;;;;5.78;1.20;;;24.90;96.40;;;;;;5071146;28;20040;-79
2022/10/06 10:03:24;;;;;;;6.65;1.48;;;25.00;95.90;;;;;;5069560;28;20064;-78
2022/10/06 10:05:55;;;;;;;4.60;1.10;;;25.20;95.80;;;;;;5072324;28;20040;-79
2022/10/06 10:08:31;;;;;;;4.40;1.20;;;25.40;96.20;;;;;;5055304;28;20060;-79
2022/10/06 10:13:57;;;;;;;6.07;1.20;;;25.60;95.40;;;;;;5040753;28;20124;-78
2022/10/06 10:16:33;;;;;;;6.88;1.10;;;26.00;95.10;;;;;;5071838;28;20052;-78
2022/10/06 10:19:00;;;;;;;5.53;1.15;;;26.00;95.40;;;;;;5072247;28;20055;-78
2022/10/06 10:21:34;;;;;;;6.95;0.85;;;25.50;94.50;;;;;;5069465;28;20396;-78
2022/10/06 10:24:05;;;;;;;5.80;0.98;;;24.90;95.00;;;;;;5071957;28;20044;-78
2022/10/06 10:26:43;;;;;;;6.50;1.35;;;23.90;95.10;;;;;;5071675;28;20126;-77
2022/10/06 10:29:15;;;;;;;5.07;1.15;;;23.40;96.10;;;;;;5054012;28;20045;-78
2022/10/06 10:32:02;;;;;;;6.13;1.10;;;23.20;95.50;;;;;;5052380;28;20129;-77
2022/10/06 10:34:51;;;;;;;4.88;1.05;;;23.70;95.70;;;;;;5070414;28;20385;-78
2022/10/06 10:37:36;;;;;;;5.55;0.88;;;24.10;95.00;;;;;;5069383;28;20059;-78
2022/10/06 10:40:11;;;;;;;5.38;0.80;;;24.20;95.20;;;;;;5070500;28;20040;-79
2022/10/06 10:42:49;;;;;;;5.32;0.88;;;24.80;95.50;;;;;;5071672;28;20044;-78
2022/10/06 10:45:25;;;;;;;3.72;1.00;;;25.40;94.80;;;;;;5070064;28;20036;-78
2022/10/06 10:47:53;;;;;;;5.75;1.02;;;25.30;94.70;;;;;;5069991;28;20119;-79
2022/10/06 10:50:18;;;;;;;4.97;0.85;;;25.10;94.50;;;;;;5038104;28;20075;-78
2022/10/06 10:52:45;;;;;;;;;;;24.90;94.50;;;;;;5071727;28;20064;-78
2022/10/06 10:55:29;;;;;;;3.50;0.80;;;24.90;94.30;;;;;;5071321;28;19917;-78
2022/10/06 10:58:00;;;;;;;5.22;0.80;;;25.00;94.40;;;;;;5071458;28;20495;-78
2022/10/06 11:00:29;;;;;;;5.88;1.23;;;24.70;94.50;;;;;;5071276;28;20115;-78
2022/10/06 11:02:57;;;;;;;6.10;1.00;;;24.60;94.40;;;;;;5071431;28;20585;-78
2022/10/06 11:05:32;;;;;;;4.32;1.00;;;24.90;94.00;;;;;;5070435;28;20100;-78
2022/10/06 11:08:15;;;;;;;3.95;0.95;;;24.90;94.40;;;;;;5054829;28;20460;-78
2022/10/06 11:10:59;;;;;;;4.47;0.90;;;25.20;94.40;;;;;;5054483;28;20055;-78
2022/10/06 11:13:38;;;;;;;8.07;1.27;;;25.60;93.80;;;;;;5068175;28;20420;-78
2022/10/06 11:16:22;;;;;;;4.82;0.85;;;25.80;93.40;;;;;;5069921;28;20074;-78
2022/10/06 11:19:10;;;;;;;3.00;0.65;;;26.00;93.80;;;;;;5066965;28;20459;-75
2022/10/06 11:21:44;;;;;;;7.85;1.10;;;26.40;92.50;;;;;;5070687;28;20040;-74
2022/10/06 11:24:24;;;;;;;3.97;0.80;;;26.30;92.40;;;;;;5069742;28;20048;-74
2022/10/06 11:27:16;;;;;;;6.07;0.77;;;26.20;92.20;;;;;;5070478;28;20056;-75
2022/10/06 11:29:49;;;;;;;4.90;1.00;;;26.20;92.50;;;;;;5068569;28;20044;-74
2022/10/06 11:32:36;;;;;;;6.10;1.13;;;26.70;92.80;;;;;;5067903;28;20111;-74
2022/10/06 11:35:02;;;;;;;;;;;27.00;92.90;;;;;;5069589;28;20047;-74
2022/10/06 11:37:30;;;;;;;4.68;0.80;;;27.20;92.30;;;;;;5052722;28;19916;-75
2022/10/06 11:40:27;;;;;;;2.70;0.60;;;27.10;92.20;;;;;;5069542;28;20437;-74
2022/10/06 11:43:16;;;;;;;4.28;0.90;;;27.40;91.90;;;;;;5051594;28;20044;-74
2022/10/06 11:46:03;;;;;;;3.78;0.50;;;26.90;91.00;;;;;;5068034;28;20044;-74
2022/10/06 11:48:30;;;;;;;4.05;0.50;;;26.00;90.90;;;;;;5069084;28;20126;-74
2022/10/06 11:51:19;;;;;;;5.43;0.95;;;26.30;91.60;;;;;;5070266;28;20040;-74
2022/10/06 11:53:45;;;;;;;3.97;0.70;;;26.40;91.30;;;;;;5052445;28;20041;-74
2022/10/06 11:56:17;;;;;;;5.55;0.60;;;26.50;91.00;;;;;;5053544;28;20044;-74
2022/10/06 11:58:55;;;;;;;3.67;0.70;;;26.90;91.50;;;;;;5070095;28;20037;-74
2022/10/06 12:01:29;;;;;;;3.33;0.68;;;27.50;91.40;;;;;;5068755;28;20089;-74
2022/10/06 12:04:07;;;;;;;4.82;0.77;;;27.70;91.20;;;;;;5063705;28;20047;-74
2022/10/06 12:06:44;;;;;;;6.45;0.70;;;28.10;91.00;;;;;;5067829;28;20040;-73
2022/10/06 12:09:31;;;;;;;3.90;0.75;;;27.60;90.90;;;;;;5070577;28;20032;-73
2022/10/06 12:12:04;;;;;;;5.47;1.13;;;26.80;90.50;;;;;;5069810;28;20427;-73
2022/10/06 12:15:08;;;;;;;4.72;0.60;;;26.20;90.90;;;;;;5069538;28;20048;-73
2022/10/06 12:18:24;;;;;;;3.33;0.50;;;26.50;91.00;;;;;;5068674;28;20507;-74
2022/10/06 12:20:52;;;;;;;5.60;0.70;;;25.90;91.20;;;;;;5011018;28;20103;-73
2022/10/06 12:23:33;;;;;;;4.60;0.90;;;25.30;92.20;;;;;;5072151;28;20048;-74
2022/10/06 12:26:15;;;;;;;4.47;0.70;;;24.90;91.90;;;;;;5053950;28;20093;-74
2022/10/06 12:29:19;;;;;;;4.38;0.57;;;25.10;92.00;;;;;;5075039;28;20052;-74
2022/10/06 12:32:11;;;;;;;3.70;0.60;;;25.80;91.60;;;;;;5071698;28;20041;-73
2022/10/06 12:34:58;;;;;;;7.63;0.77;;;26.30;92.00;;;;;;5057535;28;20476;-74
2022/10/06 12:37:27;;;;;;;;;;;26.60;91.70;;;;;;5056580;28;20083;-74
2022/10/06 12:40:31;;;;;;;4.65;0.88;;;26.80;91.10;;;;;;5075604;28;20046;-74
2022/10/06 12:43:17;;;;;;;5.93;1.30;;;27.10;90.80;;;;;;5058689;28;20072;-74
2022/10/06 12:45:54;;;;;;;4.03;1.10;;;27.00;90.50;;;;;;5043555;28;20060;-74
2022/10/06 12:48:30;;;;;;;4.50;0.90;;;26.80;90.90;;;;;;5075408;28;20405;-74
2022/10/06 12:51:06;;;;;;;4.40;0.63;;;26.60;90.80;;;;;;5075368;28;20044;-74
2022/10/06 12:54:10;;;;;;;3.75;0.70;;;26.20;90.90;;;;;;5073275;28;20438;-74
2022/10/06 12:56:41;;;;;;;4.65;0.65;;;25.70;91.30;;;;;;5074564;28;20043;-74
2022/10/06 12:59:24;;;;;;;4.88;0.88;;;25.50;91.40;;;;;;5075629;28;20040;-74
2022/10/06 13:01:53;;;;;;;3.88;0.70;;;25.20;92.00;;;;;;5075146;28;20045;-74
2022/10/06 13:04:39;;;;;;;3.80;0.88;;;25.00;92.10;;;;;;5075035;28;20102;-74
2022/10/06 13:07:29;;;;;;;4.72;0.98;;;24.20;92.20;;;;;;5075101;28;20032;-74
2022/10/06 13:10:13;;;;;;;6.30;0.68;;;23.90;92.90;;;;;;5066109;28;20052;-74
2022/10/06 13:12:45;;;;;;;4.57;0.60;;;23.70;93.10;;;;;;5074431;28;20040;-74
2022/10/06 13:15:29;;;;;;;6.05;0.73;;;23.10;93.10;;;;;;5058539;28;20043;-74
2022/10/06 13:18:09;;;;;;;2.85;0.60;;;22.80;93.50;;;;;;5074911;28;20045;-74
2022/10/06 13:20:48;;;;;;;5.43;0.90;;;22.70;93.60;;;;;;5058059;28;20036;-74
2022/10/06 13:23:20;;;;;;;5.47;0.82;;;22.50;94.00;;;;;;5075498;28;20063;-74